sensor_id;sensor_type;location;lat;lon;timestamp;pressure;altitude;pressure_sealevel;temperature;humidity
40954;BME280;26686;50.130;8.710;2023-04-19T00:03:38;100964.69;;;12.62;64.63
40954;BME280;26686;50.130;8.710;2023-04-19T00:08:41;100952.06;;;12.53;64.55
40954;BME280;26686;50.130;8.710;2023-04-19T00:13:42;100947.09;;;12.48;64.94
40954;BME280;26686;50.130;8.710;2023-04-19T00:18:43;100952.81;;;12.55;64.74
40954;BME280;26686;50.130;8.710;2023-04-19T00:23:46;100970.66;;;12.66;64.80
40954;BME280;26686;50.130;8.710;2023-04-19T00:28:48;100968.84;;;12.66;64.90
40954;BME280;26686;50.130;8.710;2023-04-19T00:33:49;100953.66;;;12.55;65.15
40954;BME280;26686;50.130;8.710;2023-04-19T00:38:51;100968.13;;;12.64;65.52
40954;BME280;26686;50.130;8.710;2023-04-19T00:43:52;100967.47;;;12.61;65.64
40954;BME280;26686;50.130;8.710;2023-04-19T00:48:54;100956.91;;;12.59;65.43
40954;BME280;26686;50.130;8.710;2023-04-19T00:53:56;100951.69;;;12.58;65.59
40954;BME280;26686;50.130;8.710;2023-04-19T00:58:58;100951.69;;;12.58;65.79
40954;BME280;26686;50.130;8.710;2023-04-19T01:04:00;100944.88;;;12.53;66.12
40954;BME280;26686;50.130;8.710;2023-04-19T01:09:02;100946.59;;;12.54;66.37
40954;BME280;26686;50.130;8.710;2023-04-19T01:14:04;100920.75;;;12.44;66.81
40954;BME280;26686;50.130;8.710;2023-04-19T01:19:06;100938.22;;;12.48;66.91
40954;BME280;26686;50.130;8.710;2023-04-19T01:24:07;100923.16;;;12.47;66.89
40954;BME280;26686;50.130;8.710;2023-04-19T01:29:08;100936.66;;;12.57;66.75
40954;BME280;26686;50.130;8.710;2023-04-19T01:34:10;100933.13;;;12.56;66.67
40954;BME280;26686;50.130;8.710;2023-04-19T01:39:11;100921.84;;;12.52;66.98
40954;BME280;26686;50.130;8.710;2023-04-19T01:44:13;100914.28;;;12.35;67.68
40954;BME280;26686;50.130;8.710;2023-04-19T01:49:14;100914.16;;;12.36;67.48
40954;BME280;26686;50.130;8.710;2023-04-19T01:54:16;100907.34;;;12.32;67.45
40954;BME280;26686;50.130;8.710;2023-04-19T01:59:18;100906.56;;;12.43;67.45
40954;BME280;26686;50.130;8.710;2023-04-19T02:04:19;100904.84;;;12.42;67.50
40954;BME280;26686;50.130;8.710;2023-04-19T02:09:22;100902.53;;;12.37;67.71
40954;BME280;26686;50.130;8.710;2023-04-19T02:14:23;100876.41;;;12.18;67.94
40954;BME280;26686;50.130;8.710;2023-04-19T02:19:24;100870.81;;;12.22;68.16
40954;BME280;26686;50.130;8.710;2023-04-19T02:24:26;100867.78;;;12.15;68.42
40954;BME280;26686;50.130;8.710;2023-04-19T02:29:27;100889.16;;;12.26;68.48
40954;BME280;26686;50.130;8.710;2023-04-19T02:34:28;100888.16;;;12.16;68.86
40954;BME280;26686;50.130;8.710;2023-04-19T02:39:31;100883.94;;;12.13;69.05
40954;BME280;26686;50.130;8.710;2023-04-19T02:44:32;100895.69;;;12.11;69.53
40954;BME280;26686;50.130;8.710;2023-04-19T02:49:34;100875.03;;;12.01;69.58
40954;BME280;26686;50.130;8.710;2023-04-19T02:54:38;100877.34;;;12.06;69.82
40954;BME280;26686;50.130;8.710;2023-04-19T02:59:39;100873.34;;;12.00;70.24
40954;BME280;26686;50.130;8.710;2023-04-19T03:04:41;100855.94;;;11.83;70.49
40954;BME280;26686;50.130;8.710;2023-04-19T03:09:43;100861.25;;;11.83;70.96
40954;BME280;26686;50.130;8.710;2023-04-19T03:14:44;100870.63;;;11.89;71.26
40954;BME280;26686;50.130;8.710;2023-04-19T03:19:46;100851.94;;;11.89;71.22
40954;BME280;26686;50.130;8.710;2023-04-19T03:24:47;100843.19;;;11.87;71.38
40954;BME280;26686;50.130;8.710;2023-04-19T03:29:49;100857.81;;;11.94;71.73
40954;BME280;26686;50.130;8.710;2023-04-19T03:34:50;100853.19;;;11.96;71.64
40954;BME280;26686;50.130;8.710;2023-04-19T03:39:51;100832.75;;;11.84;72.09
40954;BME280;26686;50.130;8.710;2023-04-19T03:44:53;100825.63;;;11.84;72.21
40954;BME280;26686;50.130;8.710;2023-04-19T03:49:54;100837.06;;;11.98;72.21
40954;BME280;26686;50.130;8.710;2023-04-19T03:54:56;100833.66;;;11.96;72.69
40954;BME280;26686;50.130;8.710;2023-04-19T03:59:58;100830.38;;;11.92;72.71
40954;BME280;26686;50.130;8.710;2023-04-19T04:05:00;100837.81;;;12.00;72.95
40954;BME280;26686;50.130;8.710;2023-04-19T04:10:01;100845.69;;;12.01;73.17
40954;BME280;26686;50.130;8.710;2023-04-19T04:15:03;100824.81;;;11.95;73.13
40954;BME280;26686;50.130;8.710;2023-04-19T04:20:06;100837.44;;;12.05;73.18
40954;BME280;26686;50.130;8.710;2023-04-19T04:25:09;100837.56;;;12.03;73.35
40954;BME280;26686;50.130;8.710;2023-04-19T04:30:10;100836.72;;;12.02;73.50
40954;BME280;26686;50.130;8.710;2023-04-19T04:35:12;100843.63;;;12.05;73.66
40954;BME280;26686;50.130;8.710;2023-04-19T04:40:14;100848.38;;;12.01;73.88
40954;BME280;26686;50.130;8.710;2023-04-19T04:45:16;100833.19;;;12.02;73.68
40954;BME280;26686;50.130;8.710;2023-04-19T04:50:18;100847.13;;;11.94;74.29
40954;BME280;26686;50.130;8.710;2023-04-19T04:55:20;100817.28;;;11.89;74.05
40954;BME280;26686;50.130;8.710;2023-04-19T05:00:22;100833.56;;;11.97;74.20
40954;BME280;26686;50.130;8.710;2023-04-19T05:05:24;100831.31;;;11.91;74.03
40954;BME280;26686;50.130;8.710;2023-04-19T05:10:25;100824.94;;;11.94;74.17
40954;BME280;26686;50.130;8.710;2023-04-19T05:15:27;100845.94;;;11.98;73.97
40954;BME280;26686;50.130;8.710;2023-04-19T05:20:28;100831.41;;;12.02;73.85
40954;BME280;26686;50.130;8.710;2023-04-19T05:25:30;100827.00;;;12.01;72.85
40954;BME280;26686;50.130;8.710;2023-04-19T05:30:32;100822.63;;;12.00;72.53
40954;BME280;26686;50.130;8.710;2023-04-19T05:35:33;100812.97;;;11.99;72.13
40954;BME280;26686;50.130;8.710;2023-04-19T05:40:35;100834.19;;;12.12;71.69
40954;BME280;26686;50.130;8.710;2023-04-19T05:45:36;100831.91;;;12.19;71.24
40954;BME280;26686;50.130;8.710;2023-04-19T05:50:38;100831.16;;;12.17;71.17
40954;BME280;26686;50.130;8.710;2023-04-19T05:55:39;100807.25;;;12.15;70.88
40954;BME280;26686;50.130;8.710;2023-04-19T06:00:41;100806.41;;;12.15;70.11
40954;BME280;26686;50.130;8.710;2023-04-19T06:05:43;100815.88;;;12.19;69.76
40954;BME280;26686;50.130;8.710;2023-04-19T06:10:44;100808.47;;;12.23;69.34
40954;BME280;26686;50.130;8.710;2023-04-19T06:15:58;100829.69;;;12.35;68.54
40954;BME280;26686;50.130;8.710;2023-04-19T06:20:59;100829.94;;;12.32;68.35
40954;BME280;26686;50.130;8.710;2023-04-19T06:26:01;100833.97;;;12.38;67.56
40954;BME280;26686;50.130;8.710;2023-04-19T06:31:03;100830.56;;;12.36;67.06
40954;BME280;26686;50.130;8.710;2023-04-19T06:36:05;100833.97;;;12.38;66.43
40954;BME280;26686;50.130;8.710;2023-04-19T06:41:06;100840.03;;;12.40;66.50
40954;BME280;26686;50.130;8.710;2023-04-19T06:46:09;100836.28;;;12.31;65.84
40954;BME280;26686;50.130;8.710;2023-04-19T06:51:11;100822.53;;;12.25;65.25
40954;BME280;26686;50.130;8.710;2023-04-19T06:56:13;100841.25;;;12.36;64.89
40954;BME280;26686;50.130;8.710;2023-04-19T07:01:14;100831.16;;;12.40;64.97
40954;BME280;26686;50.130;8.710;2023-04-19T07:06:16;100820.00;;;12.23;65.04
40954;BME280;26686;50.130;8.710;2023-04-19T07:11:17;100828.97;;;12.33;64.21
40954;BME280;26686;50.130;8.710;2023-04-19T07:16:21;100828.38;;;12.41;63.80
40954;BME280;26686;50.130;8.710;2023-04-19T07:21:23;100799.03;;;12.30;62.71
40954;BME280;26686;50.130;8.710;2023-04-19T07:26:33;100813.44;;;12.50;62.33
40954;BME280;26686;50.130;8.710;2023-04-19T07:31:34;100800.06;;;12.72;62.02
40954;BME280;26686;50.130;8.710;2023-04-19T07:36:37;100805.28;;;12.74;60.89
40954;BME280;26686;50.130;8.710;2023-04-19T07:41:39;100783.78;;;12.76;60.52
40954;BME280;26686;50.130;8.710;2023-04-19T07:46:42;100801.72;;;12.96;59.70
40954;BME280;26686;50.130;8.710;2023-04-19T07:51:45;100784.59;;;12.99;58.56
40954;BME280;26686;50.130;8.710;2023-04-19T07:56:46;100789.88;;;13.10;57.49
40954;BME280;26686;50.130;8.710;2023-04-19T08:01:48;100776.41;;;13.12;57.69
40954;BME280;26686;50.130;8.710;2023-04-19T08:06:49;100779.03;;;13.23;56.95
40954;BME280;26686;50.130;8.710;2023-04-19T08:11:52;100768.53;;;13.31;56.84
40954;BME280;26686;50.130;8.710;2023-04-19T08:16:54;100769.44;;;13.53;56.73
40954;BME280;26686;50.130;8.710;2023-04-19T08:22:16;100775.38;;;13.77;55.10
40954;BME280;26686;50.130;8.710;2023-04-19T08:27:18;100774.00;;;13.83;54.78
40954;BME280;26686;50.130;8.710;2023-04-19T08:32:20;100768.09;;;14.10;54.00
40954;BME280;26686;50.130;8.710;2023-04-19T08:37:22;100775.34;;;14.29;52.65
40954;BME280;26686;50.130;8.710;2023-04-19T08:42:23;100766.78;;;14.36;53.25
40954;BME280;26686;50.130;8.710;2023-04-19T08:47:38;100767.34;;;14.70;52.57
40954;BME280;26686;50.130;8.710;2023-04-19T08:52:43;100764.09;;;14.86;51.55
40954;BME280;26686;50.130;8.710;2023-04-19T08:57:57;100765.06;;;14.75;51.91
40954;BME280;26686;50.130;8.710;2023-04-19T09:02:59;100756.66;;;15.09;50.95
40954;BME280;26686;50.130;8.710;2023-04-19T09:08:23;100726.72;;;15.24;50.11
40954;BME280;26686;50.130;8.710;2023-04-19T09:13:26;100749.81;;;15.64;50.58
40954;BME280;26686;50.130;8.710;2023-04-19T09:18:28;100735.09;;;15.87;48.68
40954;BME280;26686;50.130;8.710;2023-04-19T09:23:45;100729.88;;;16.23;47.73
40954;BME280;26686;50.130;8.710;2023-04-19T09:29:00;100727.94;;;16.61;47.82
40954;BME280;26686;50.130;8.710;2023-04-19T09:34:12;100707.38;;;16.52;45.94
40954;BME280;26686;50.130;8.710;2023-04-19T09:39:27;100721.38;;;16.74;43.28
40954;BME280;26686;50.130;8.710;2023-04-19T09:44:29;100727.69;;;17.01;42.48
40954;BME280;26686;50.130;8.710;2023-04-19T09:55:22;100715.25;;;17.36;41.25
40954;BME280;26686;50.130;8.710;2023-04-19T10:00:29;100716.59;;;17.40;40.62
40954;BME280;26686;50.130;8.710;2023-04-19T10:05:45;100721.63;;;17.61;38.46
40954;BME280;26686;50.130;8.710;2023-04-19T10:10:48;100722.22;;;17.99;37.91
40954;BME280;26686;50.130;8.710;2023-04-19T10:15:54;100724.75;;;18.35;36.68
40954;BME280;26686;50.130;8.710;2023-04-19T10:21:12;100703.50;;;19.16;35.13
40954;BME280;26686;50.130;8.710;2023-04-19T10:26:15;100702.88;;;22.33;29.88
40954;BME280;26686;50.130;8.710;2023-04-19T10:31:19;100693.69;;;23.63;28.38
40954;BME280;26686;50.130;8.710;2023-04-19T10:36:26;100694.41;;;23.01;28.53
40954;BME280;26686;50.130;8.710;2023-04-19T10:41:56;100685.41;;;22.20;29.57
40954;BME280;26686;50.130;8.710;2023-04-19T10:46:59;100694.34;;;22.51;27.48
40954;BME280;26686;50.130;8.710;2023-04-19T10:52:00;100663.00;;;24.66;25.22
40954;BME280;26686;50.130;8.710;2023-04-19T10:57:08;100661.69;;;27.05;20.62
40954;BME280;26686;50.130;8.710;2023-04-19T11:07:23;100651.13;;;29.65;18.27
40954;BME280;26686;50.130;8.710;2023-04-19T11:12:25;100632.91;;;31.20;15.33
40954;BME280;26686;50.130;8.710;2023-04-19T11:17:30;100637.28;;;31.38;15.34
40954;BME280;26686;50.130;8.710;2023-04-19T11:22:44;100634.59;;;31.60;15.04
40954;BME280;26686;50.130;8.710;2023-04-19T11:27:51;100626.25;;;32.49;13.95
40954;BME280;26686;50.130;8.710;2023-04-19T11:32:56;100609.00;;;33.76;14.53
40954;BME280;26686;50.130;8.710;2023-04-19T11:37:58;100606.34;;;34.07;13.59
40954;BME280;26686;50.130;8.710;2023-04-19T11:43:01;100611.16;;;34.43;12.79
40954;BME280;26686;50.130;8.710;2023-04-19T11:48:04;100591.97;;;33.95;12.71
40954;BME280;26686;50.130;8.710;2023-04-19T11:53:20;100593.75;;;34.37;12.34
40954;BME280;26686;50.130;8.710;2023-04-19T11:58:29;100578.22;;;33.47;11.99
40954;BME280;26686;50.130;8.710;2023-04-19T12:03:54;100548.81;;;30.51;14.19
40954;BME280;26686;50.130;8.710;2023-04-19T12:08:55;100565.41;;;27.35;16.68
40954;BME280;26686;50.130;8.710;2023-04-19T12:14:07;100561.38;;;25.98;18.08
40954;BME280;26686;50.130;8.710;2023-04-19T12:19:13;100553.47;;;25.18;17.95
40954;BME280;26686;50.130;8.710;2023-04-19T12:24:18;100555.63;;;24.76;18.02
40954;BME280;26686;50.130;8.710;2023-04-19T12:29:19;100536.34;;;24.50;18.77
40954;BME280;26686;50.130;8.710;2023-04-19T12:34:20;100534.50;;;23.82;19.84
40954;BME280;26686;50.130;8.710;2023-04-19T12:39:22;100542.06;;;23.45;21.33
40954;BME280;26686;50.130;8.710;2023-04-19T12:44:23;100536.00;;;23.43;20.03
40954;BME280;26686;50.130;8.710;2023-04-19T12:49:25;100520.00;;;23.20;19.68
40954;BME280;26686;50.130;8.710;2023-04-19T12:54:26;100527.50;;;22.62;20.99
40954;BME280;26686;50.130;8.710;2023-04-19T12:59:28;100534.09;;;22.52;20.72
40954;BME280;26686;50.130;8.710;2023-04-19T13:04:29;100498.19;;;22.07;20.44
40954;BME280;26686;50.130;8.710;2023-04-19T13:09:31;100509.13;;;21.77;22.40
40954;BME280;26686;50.130;8.710;2023-04-19T13:14:33;100503.34;;;21.80;21.36
40954;BME280;26686;50.130;8.710;2023-04-19T13:19:34;100506.38;;;21.92;20.93
40954;BME280;26686;50.130;8.710;2023-04-19T13:24:36;100501.09;;;21.69;20.28
40954;BME280;26686;50.130;8.710;2023-04-19T13:29:37;100479.50;;;21.09;18.07
40954;BME280;26686;50.130;8.710;2023-04-19T13:34:39;100495.84;;;20.63;18.07
40954;BME280;26686;50.130;8.710;2023-04-19T13:39:41;100490.00;;;20.36;18.05
40954;BME280;26686;50.130;8.710;2023-04-19T13:44:43;100483.66;;;20.29;19.10
40954;BME280;26686;50.130;8.710;2023-04-19T13:49:44;100474.03;;;20.03;19.36
40954;BME280;26686;50.130;8.710;2023-04-19T13:54:52;100479.56;;;19.87;20.27
40954;BME280;26686;50.130;8.710;2023-04-19T13:59:53;100460.66;;;19.55;20.99
40954;BME280;26686;50.130;8.710;2023-04-19T14:04:54;100467.56;;;19.58;20.90
40954;BME280;26686;50.130;8.710;2023-04-19T14:09:59;100463.84;;;19.19;22.49
40954;BME280;26686;50.130;8.710;2023-04-19T14:15:00;100430.94;;;18.68;21.88
40954;BME280;26686;50.130;8.710;2023-04-19T14:20:02;100460.44;;;18.86;21.77
40954;BME280;26686;50.130;8.710;2023-04-19T14:25:07;100459.78;;;18.43;22.57
40954;BME280;26686;50.130;8.710;2023-04-19T14:30:09;100464.84;;;18.54;22.52
40954;BME280;26686;50.130;8.710;2023-04-19T14:35:10;100441.25;;;18.31;22.96
40954;BME280;26686;50.130;8.710;2023-04-19T14:40:12;100445.47;;;18.01;23.12
40954;BME280;26686;50.130;8.710;2023-04-19T14:45:13;100451.34;;;17.88;23.43
40954;BME280;26686;50.130;8.710;2023-04-19T14:50:15;100440.28;;;17.91;23.49
40954;BME280;26686;50.130;8.710;2023-04-19T14:55:16;100450.97;;;17.83;24.03
40954;BME280;26686;50.130;8.710;2023-04-19T15:00:18;100450.97;;;17.83;24.24
40954;BME280;26686;50.130;8.710;2023-04-19T15:05:21;100435.63;;;17.59;24.31
40954;BME280;26686;50.130;8.710;2023-04-19T15:10:24;100439.31;;;17.58;24.03
40954;BME280;26686;50.130;8.710;2023-04-19T15:15:25;100441.34;;;17.56;24.56
40954;BME280;26686;50.130;8.710;2023-04-19T15:20:27;100443.53;;;17.60;25.04
40954;BME280;26686;50.130;8.710;2023-04-19T15:25:28;100438.13;;;17.44;24.75
40954;BME280;26686;50.130;8.710;2023-04-19T15:30:30;100439.09;;;17.35;25.48
40954;BME280;26686;50.130;8.710;2023-04-19T15:35:31;100400.09;;;16.88;25.60
40954;BME280;26686;50.130;8.710;2023-04-19T15:40:34;100419.66;;;17.06;25.82
40954;BME280;26686;50.130;8.710;2023-04-19T15:45:38;100430.44;;;16.80;26.00
40954;BME280;26686;50.130;8.710;2023-04-19T15:50:39;100436.31;;;16.75;26.23
40954;BME280;26686;50.130;8.710;2023-04-19T15:55:44;100430.75;;;16.51;26.36
40954;BME280;26686;50.130;8.710;2023-04-19T16:00:48;100440.25;;;16.37;27.20
40954;BME280;26686;50.130;8.710;2023-04-19T16:05:49;100446.88;;;16.24;26.60
40954;BME280;26686;50.130;8.710;2023-04-19T16:10:51;100445.56;;;16.11;27.67
40954;BME280;26686;50.130;8.710;2023-04-19T16:15:53;100454.47;;;16.11;27.61
40954;BME280;26686;50.130;8.710;2023-04-19T16:20:54;100451.25;;;16.07;27.40
40954;BME280;26686;50.130;8.710;2023-04-19T16:25:56;100452.00;;;16.00;27.84
40954;BME280;26686;50.130;8.710;2023-04-19T16:30:57;100457.94;;;15.85;27.49
40954;BME280;26686;50.130;8.710;2023-04-19T16:35:59;100455.28;;;15.76;27.93
40954;BME280;26686;50.130;8.710;2023-04-19T16:41:00;100457.78;;;15.59;27.66
40954;BME280;26686;50.130;8.710;2023-04-19T16:46:04;100450.81;;;15.48;27.75
40954;BME280;26686;50.130;8.710;2023-04-19T16:51:07;100441.78;;;15.49;33.40
40954;BME280;26686;50.130;8.710;2023-04-19T16:56:08;100449.81;;;15.49;27.91
40954;BME280;26686;50.130;8.710;2023-04-19T17:01:10;100461.69;;;15.47;28.13
40954;BME280;26686;50.130;8.710;2023-04-19T17:06:11;100439.09;;;15.22;28.26
40954;BME280;26686;50.130;8.710;2023-04-19T17:11:12;100456.88;;;15.23;28.57
40954;BME280;26686;50.130;8.710;2023-04-19T17:16:14;100454.34;;;15.21;29.09
40954;BME280;26686;50.130;8.710;2023-04-19T17:21:15;100460.75;;;15.10;28.75
40954;BME280;26686;50.130;8.710;2023-04-19T17:26:17;100450.97;;;14.81;29.19
40954;BME280;26686;50.130;8.710;2023-04-19T17:31:18;100441.03;;;14.64;28.97
40954;BME280;26686;50.130;8.710;2023-04-19T17:36:20;100465.53;;;14.59;29.14
40954;BME280;26686;50.130;8.710;2023-04-19T17:41:21;100458.06;;;14.53;29.56
40954;BME280;26686;50.130;8.710;2023-04-19T17:46:22;100456.25;;;14.44;29.31
40954;BME280;26686;50.130;8.710;2023-04-19T17:51:24;100442.06;;;14.24;29.47
40954;BME280;26686;50.130;8.710;2023-04-19T17:56:25;100457.16;;;14.25;29.49
40954;BME280;26686;50.130;8.710;2023-04-19T18:01:27;100444.19;;;14.10;29.65
40954;BME280;26686;50.130;8.710;2023-04-19T18:06:30;100467.28;;;14.11;29.65
40954;BME280;26686;50.130;8.710;2023-04-19T18:11:32;100448.69;;;14.00;29.85
40954;BME280;26686;50.130;8.710;2023-04-19T18:16:33;100461.09;;;14.01;29.95
40954;BME280;26686;50.130;8.710;2023-04-19T18:21:35;100459.41;;;13.90;29.44
40954;BME280;26686;50.130;8.710;2023-04-19T18:26:38;100468.69;;;13.86;30.08
40954;BME280;26686;50.130;8.710;2023-04-19T18:31:41;100471.63;;;13.73;30.14
40954;BME280;26686;50.130;8.710;2023-04-19T18:36:42;100457.25;;;13.55;30.93
40954;BME280;26686;50.130;8.710;2023-04-19T18:41:44;100467.25;;;13.53;31.28
40954;BME280;26686;50.130;8.710;2023-04-19T18:46:45;100462.13;;;13.40;31.39
40954;BME280;26686;50.130;8.710;2023-04-19T18:51:47;100469.31;;;13.39;32.03
40954;BME280;26686;50.130;8.710;2023-04-19T18:56:48;100468.19;;;13.42;32.46
40954;BME280;26686;50.130;8.710;2023-04-19T19:02:09;100477.84;;;13.33;36.12
40954;BME280;26686;50.130;8.710;2023-04-19T19:07:11;100488.47;;;13.14;33.94
40954;BME280;26686;50.130;8.710;2023-04-19T19:12:33;100487.38;;;12.95;34.23
40954;BME280;26686;50.130;8.710;2023-04-19T19:17:34;100468.59;;;12.76;34.46
40954;BME280;26686;50.130;8.710;2023-04-19T19:22:36;100482.47;;;12.69;34.04
40954;BME280;26686;50.130;8.710;2023-04-19T19:27:37;100493.88;;;12.71;33.88
40954;BME280;26686;50.130;8.710;2023-04-19T19:32:39;100500.00;;;12.62;34.30
40954;BME280;26686;50.130;8.710;2023-04-19T19:37:40;100473.16;;;12.43;33.97
40954;BME280;26686;50.130;8.710;2023-04-19T19:42:42;100478.31;;;12.34;34.32
40954;BME280;26686;50.130;8.710;2023-04-19T19:47:43;100491.41;;;12.37;34.71
40954;BME280;26686;50.130;8.710;2023-04-19T19:52:48;100487.81;;;12.27;34.67
40954;BME280;26686;50.130;8.710;2023-04-19T19:57:49;100497.78;;;12.25;34.96
40954;BME280;26686;50.130;8.710;2023-04-19T20:02:54;100482.66;;;12.14;35.02
40954;BME280;26686;50.130;8.710;2023-04-19T20:08:08;100493.19;;;12.16;35.13
40954;BME280;26686;50.130;8.710;2023-04-19T20:13:10;100491.78;;;12.12;35.14
40954;BME280;26686;50.130;8.710;2023-04-19T20:18:13;100503.28;;;12.12;35.24
40954;BME280;26686;50.130;8.710;2023-04-19T20:23:17;100476.44;;;11.93;35.24
40954;BME280;26686;50.130;8.710;2023-04-19T20:28:19;100475.69;;;11.91;35.33
40954;BME280;26686;50.130;8.710;2023-04-19T20:33:20;100491.22;;;11.97;35.50
40954;BME280;26686;50.130;8.710;2023-04-19T20:38:22;100490.84;;;11.90;35.66
40954;BME280;26686;50.130;8.710;2023-04-19T20:43:24;100479.97;;;11.82;35.99
40954;BME280;26686;50.130;8.710;2023-04-19T20:48:26;100481.06;;;11.79;35.91
40954;BME280;26686;50.130;8.710;2023-04-19T20:53:27;100476.94;;;11.75;37.99
40954;BME280;26686;50.130;8.710;2023-04-19T20:58:29;100488.94;;;11.81;37.71
40954;BME280;26686;50.130;8.710;2023-04-19T21:03:32;100468.38;;;11.60;36.45
40954;BME280;26686;50.130;8.710;2023-04-19T21:08:34;100483.91;;;11.66;36.84
40954;BME280;26686;50.130;8.710;2023-04-19T21:13:36;100477.94;;;11.63;36.88
40954;BME280;26686;50.130;8.710;2023-04-19T21:18:37;100475.78;;;11.57;37.02
40954;BME280;26686;50.130;8.710;2023-04-19T21:23:38;100468.41;;;11.49;37.63
40954;BME280;26686;50.130;8.710;2023-04-19T21:28:40;100461.38;;;11.48;37.43
40954;BME280;26686;50.130;8.710;2023-04-19T21:33:41;100443.00;;;11.34;36.80
40954;BME280;26686;50.130;8.710;2023-04-19T21:38:43;100453.16;;;11.40;37.30
40954;BME280;26686;50.130;8.710;2023-04-19T21:43:44;100464.06;;;11.37;37.80
40954;BME280;26686;50.130;8.710;2023-04-19T21:48:45;100448.47;;;11.32;37.74
40954;BME280;26686;50.130;8.710;2023-04-19T21:53:47;100436.72;;;11.23;38.21
40954;BME280;26686;50.130;8.710;2023-04-19T21:58:48;100448.56;;;11.08;38.17
40954;BME280;26686;50.130;8.710;2023-04-19T22:03:49;100437.22;;;11.06;38.39
40954;BME280;26686;50.130;8.710;2023-04-19T22:08:51;100433.34;;;11.10;38.35
40954;BME280;26686;50.130;8.710;2023-04-19T22:13:53;100428.88;;;10.99;39.53
40954;BME280;26686;50.130;8.710;2023-04-19T22:18:55;100414.81;;;10.97;38.51
40954;BME280;26686;50.130;8.710;2023-04-19T22:23:58;100417.84;;;10.92;38.53
40954;BME280;26686;50.130;8.710;2023-04-19T22:28:59;100415.41;;;10.89;38.39
40954;BME280;26686;50.130;8.710;2023-04-19T22:34:00;100406.72;;;10.87;38.64
40954;BME280;26686;50.130;8.710;2023-04-19T22:39:02;100407.91;;;10.83;38.78
40954;BME280;26686;50.130;8.710;2023-04-19T22:44:04;100386.03;;;10.68;39.14
40954;BME280;26686;50.130;8.710;2023-04-19T22:49:05;100387.81;;;10.56;39.21
40954;BME280;26686;50.130;8.710;2023-04-19T22:54:08;100388.22;;;10.63;39.31
40954;BME280;26686;50.130;8.710;2023-04-19T22:59:10;100362.78;;;10.48;39.43
40954;BME280;26686;50.130;8.710;2023-04-19T23:04:13;100378.16;;;10.55;39.64
40954;BME280;26686;50.130;8.710;2023-04-19T23:09:15;100348.63;;;10.36;40.07
40954;BME280;26686;50.130;8.710;2023-04-19T23:14:18;100354.50;;;10.28;40.09
40954;BME280;26686;50.130;8.710;2023-04-19T23:19:19;100366.84;;;10.29;40.85
40954;BME280;26686;50.130;8.710;2023-04-19T23:24:23;100320.72;;;9.95;40.75
40954;BME280;26686;50.130;8.710;2023-04-19T23:29:24;100352.69;;;10.17;40.84
40954;BME280;26686;50.130;8.710;2023-04-19T23:34:25;100346.63;;;10.15;41.35
40954;BME280;26686;50.130;8.710;2023-04-19T23:39:27;100345.41;;;10.08;41.35
40954;BME280;26686;50.130;8.710;2023-04-19T23:44:28;100335.13;;;10.03;41.54
40954;BME280;26686;50.130;8.710;2023-04-19T23:49:30;100312.50;;;9.86;41.85
40954;BME280;26686;50.130;8.710;2023-04-19T23:54:32;100320.72;;;9.95;42.06
40954;BME280;26686;50.130;8.710;2023-04-19T23:59:33;100312.50;;;9.86;42.13
